aviador You're here:

LICG Decoded Metar

PANTELLERIA in ITALY
Report Time2018-04-24 13:55:00
UTC Time2018-04-24 14:34:53
Flight Rules vfr VFR
Wind190° at 08 kt
W.Decomp.*RWY 21: 7.4 kt HW 3 kt LCW
RWY 26: 2.5 kt HW 7.6 kt LCW
W.Rank190° ranks 9
Current wind is below 190° avg. (11.3)
Visibility9999 m
Phenomena:N/A
Clouds:N/A
Expected CloudBase > 5,200 ft AGL from Temp-Dew spread
CeilingNone
Temp24°C (ISA +10)
Dew Point11°C (44% RH)
AAT21.4°C
QNH1019 hPa
Density Alt1,791 ft
Elevation627 ft
Report Wrong Elevation
Raw Report
LICG 241355Z 19008KT CAVOK 24/11 Q1019=

Extra information for LICG:More info

Metar Taf Metar & Taf Last 4 Metars F.Rules Stats Wind Profile Meteogram Temp Stats Airport Information Weather charts Add Link Nearby VenuesMetar ALERT Operation Metar Decoded Social comments